.
WxDataArchive / Data Records for 2014-01-05
2014-01-04 January 2014 2014-01-06

Data Records for Sunday, 05 January 2014

Time	Temp	Chill	HIndex	Humid	Dewpt	 Wind 	HiWind	WindDir	Rain 	Barom 
-----	----	-----	------	-----	-----	------	------	-------	-----	----- 
00:00	33.5	33.5	33.5	69	24.4	0	1	112	0.00	30.014 
00:05	33.8	33.8	33.8	69	24.7	0	2	112	0.00	30.014 
00:10	34.0	34.0	34.0	70	25.3	0	3	112	0.00	30.014 
00:15	34.3	34.3	34.3	70	25.5	0	3	225	0.00	30.014 
00:20	34.4	34.4	34.4	70	25.6	0	1	225	0.00	30.014 
00:25	34.6	34.6	34.6	70	25.8	0	3	225	0.00	30.014 
00:30	34.7	34.7	34.7	69	25.6	0	4	248	0.00	30.007 
00:35	34.7	34.7	34.7	69	25.6	0	2	248	0.00	30.007 
00:40	34.9	34.9	34.9	69	25.8	0	2	248	0.00	30.007 
00:45	34.9	34.9	34.9	69	25.8	0	4	248	0.00	30.006 
00:50	34.9	34.9	34.9	69	25.8	0	2	248	0.00	30.006 
00:55	34.9	34.9	34.9	69	25.8	0	1	248	0.00	30.006 
01:00	34.9	34.9	34.9	69	25.8	0	2	248	0.00	30.007 
01:05	34.9	34.9	34.9	70	26.1	0	2	248	0.00	30.007 
01:10	34.7	34.7	34.7	70	25.9	0	1	248	0.00	30.007 
01:15	34.6	34.6	34.6	70	25.8	0	1	248	0.00	30.007 
01:20	34.4	34.4	34.4	71	26.0	0	1	248	0.00	30.007 
01:25	34.4	34.4	34.4	71	26.0	0	3	248	0.00	30.007 
01:30	34.6	34.6	34.6	69	25.5	2	7	270	0.00	30.009 
01:35	34.9	34.9	34.9	69	25.8	1	6	270	0.00	30.009 
01:40	35.0	35.0	35.0	68	25.5	1	4	248	0.00	30.009 
01:45	35.2	35.2	35.2	68	25.7	1	4	248	0.00	30.007 
01:50	35.2	35.2	35.2	67	25.4	1	4	248	0.00	30.007 
01:55	35.2	35.2	35.2	67	25.4	0	2	248	0.00	30.007 
02:00	35.0	35.0	35.0	67	25.2	0	4	248	0.00	30.007 
02:05	35.0	35.0	35.0	67	25.2	0	2	248	0.00	30.007 
02:10	35.0	35.0	35.0	67	25.2	0	1	248	0.00	30.007 
02:15	34.9	34.9	34.9	67	25.1	0	1	248	0.01	30.008 
02:20	34.9	34.9	34.9	67	25.1	0	2	248	0.00	30.008 
02:25	34.7	34.7	34.7	68	25.2	0	1	248	0.00	30.008 
02:30	34.6	34.6	34.6	69	25.5	0	0	---	0.00	30.007 
02:35	34.3	34.3	34.3	69	25.2	0	1	248	0.00	30.007 
02:40	34.1	34.1	34.1	69	25.0	0	1	248	0.00	30.007 
02:45	34.0	34.0	34.0	70	25.3	0	0	---	0.00	30.007 
02:50	33.8	33.8	33.8	71	25.4	0	0	---	0.00	30.007 
02:55	33.7	33.7	33.7	71	25.3	0	0	---	0.00	30.007 
03:00	33.5	33.5	33.5	72	25.5	0	0	---	0.00	30.010 
03:05	33.4	33.4	33.4	72	25.4	0	0	---	0.00	30.010 
03:10	33.2	33.2	33.2	73	25.5	0	0	---	0.00	30.010 
03:15	33.1	33.1	33.1	73	25.4	0	0	---	0.00	30.012 
03:20	32.9	32.9	32.9	73	25.2	0	0	---	0.00	30.012 
03:25	32.8	32.8	32.8	74	25.4	0	0	---	0.00	30.012 
03:30	32.7	32.7	32.7	74	25.3	0	0	---	0.00	30.005 
03:35	32.5	32.5	32.5	75	25.5	0	0	---	0.00	30.005 
03:40	32.5	32.5	32.5	75	25.5	0	1	248	0.00	30.005 
03:45	32.5	32.5	32.5	75	25.5	0	0	---	0.00	30.002 
03:50	32.4	32.4	32.4	75	25.4	0	0	---	0.00	30.002 
03:55	32.4	32.4	32.4	75	25.4	0	0	---	0.00	30.002 
04:00	32.4	32.4	32.4	76	25.7	0	0	---	0.00	29.994 
04:05	32.4	32.4	32.4	76	25.7	0	0	---	0.00	29.994 
04:10	32.2	32.2	32.2	76	25.5	0	0	---	0.00	29.994 
04:15	32.2	32.2	32.2	76	25.5	0	0	---	0.00	29.992 
04:20	32.2	32.2	32.2	76	25.5	0	0	---	0.00	29.992 
04:25	32.2	32.2	32.2	76	25.5	0	0	---	0.00	29.992 
04:30	32.4	32.4	32.4	77	26.0	0	0	---	0.00	29.987 
04:35	32.5	32.5	32.5	77	26.1	0	0	---	0.00	29.987 
04:40	32.7	32.7	32.7	77	26.3	0	0	---	0.00	29.987 
04:45	32.7	32.7	32.7	77	26.3	0	0	---	0.00	29.990 
04:50	32.8	32.8	32.8	78	26.7	0	1	248	0.00	29.990 
04:55	32.9	32.9	32.9	79	27.1	0	0	---	0.00	29.990 
05:00	32.9	32.9	32.9	80	27.4	0	0	---	0.00	29.990 
05:05	32.9	32.9	32.9	81	27.7	0	0	---	0.00	29.990 
05:10	32.8	32.8	32.8	81	27.6	0	0	---	0.00	29.990 
05:15	32.8	32.8	32.8	82	27.9	0	0	---	0.00	29.990 
05:20	32.7	32.7	32.7	83	28.1	0	1	248	0.00	29.990 
05:25	32.7	32.7	32.7	84	28.4	0	1	248	0.00	29.990 
05:30	32.5	32.5	32.5	84	28.2	0	0	---	0.00	29.989 
05:35	32.5	32.5	32.5	85	28.5	0	0	---	0.00	29.989 
05:40	32.4	32.4	32.4	85	28.4	0	0	---	0.00	29.989 
05:45	32.4	32.4	32.4	85	28.4	0	0	---	0.00	29.985 
05:50	32.4	32.4	32.4	86	28.7	0	0	---	0.00	29.985 
05:55	32.2	32.2	32.2	86	28.5	0	0	---	0.00	29.985 
06:00	32.1	32.1	32.1	87	28.7	0	0	---	0.00	29.976 
06:05	32.1	32.1	32.1	87	28.7	0	0	---	0.00	29.976 
06:10	31.9	31.9	31.9	88	28.8	0	0	---	0.00	29.976 
06:15	31.9	31.9	31.9	88	28.8	0	0	---	0.00	29.977 
06:20	31.8	31.8	31.8	88	28.7	0	0	---	0.00	29.977 
06:25	31.8	31.8	31.8	88	28.7	0	1	248	0.00	29.977 
06:30	31.6	31.6	31.6	88	28.5	0	0	---	0.00	29.973 
06:35	31.5	31.5	31.5	89	28.6	0	0	---	0.00	29.973 
06:40	31.3	31.3	31.3	89	28.4	0	0	---	0.00	29.973 
06:45	31.3	31.3	31.3	89	28.4	0	0	---	0.00	29.975 
06:50	31.2	31.2	31.2	89	28.3	0	0	---	0.00	29.975 
06:55	31.2	31.2	31.2	89	28.3	0	0	---	0.00	29.975 
07:00	31.2	31.2	31.2	89	28.3	0	0	---	0.00	29.976 
07:05	31.0	31.0	31.0	89	28.1	0	0	---	0.00	29.976 
07:10	31.0	31.0	31.0	89	28.1	0	0	---	0.00	29.976 
07:15	31.0	31.0	31.0	89	28.1	0	0	---	0.00	29.976 
07:20	31.0	31.0	31.0	90	28.4	0	0	---	0.00	29.976 
07:25	31.0	31.0	31.0	90	28.4	0	0	---	0.00	29.976 
07:30	30.9	30.9	30.9	90	28.3	0	0	---	0.00	29.977 
07:35	31.0	31.0	31.0	90	28.4	0	0	---	0.00	29.977 
07:40	31.0	31.0	31.0	90	28.4	0	0	---	0.00	29.977 
07:45	31.0	31.0	31.0	90	28.4	0	0	---	0.00	29.979 
07:50	31.0	31.0	31.0	91	28.7	0	0	---	0.00	29.979 
07:55	31.0	31.0	31.0	91	28.7	0	0	---	0.00	29.979 
08:00	31.0	31.0	31.0	91	28.7	0	1	248	0.00	29.981 
08:05	31.0	31.0	31.0	91	28.7	0	0	---	0.00	29.981 
08:10	30.9	30.9	30.9	91	28.6	0	0	---	0.00	29.981 
08:15	30.9	30.9	30.9	91	28.6	0	0	---	0.00	29.979 
08:20	30.9	30.9	30.9	91	28.6	0	0	---	0.00	29.979 
08:25	30.9	30.9	30.9	92	28.9	0	1	248	0.00	29.979 
08:30	30.9	30.9	30.9	92	28.9	0	1	248	0.00	29.978 
08:35	30.9	30.9	30.9	92	28.9	0	0	---	0.00	29.978 
08:40	30.9	30.9	30.9	92	28.9	0	2	248	0.00	29.978 
08:45	30.9	30.9	30.9	92	28.9	0	1	248	0.00	29.978 
08:50	30.9	30.9	30.9	92	28.9	0	1	248	0.00	29.978 
08:55	30.9	30.9	30.9	92	28.9	0	1	248	0.00	29.978 
09:00	30.9	30.9	30.9	92	28.9	0	1	248	0.00	29.970 
09:05	30.9	30.9	30.9	92	28.9	0	2	248	0.00	29.970 
09:10	30.9	30.9	30.9	92	28.9	0	1	248	0.00	29.970 
09:15	30.9	30.9	30.9	92	28.9	0	2	248	0.00	29.962 
09:20	31.0	31.0	31.0	92	29.0	0	3	248	0.00	29.962 
09:25	31.0	31.0	31.0	92	29.0	1	3	248	0.00	29.962 
09:30	30.9	30.9	30.9	92	28.9	1	3	112	0.00	29.959 
09:35	30.7	30.7	30.7	92	28.7	0	2	112	0.00	29.959 
09:40	30.7	30.7	30.7	92	28.7	1	2	112	0.00	29.959 
09:45	30.6	30.6	30.6	93	28.8	1	2	112	0.00	29.952 
09:50	30.6	30.6	30.6	93	28.8	0	2	112	0.00	29.952 
09:55	30.6	30.6	30.6	93	28.8	1	3	112	0.00	29.952 
10:00	30.7	30.7	30.7	93	28.9	1	2	112	0.00	29.946 
10:05	30.7	30.7	30.7	93	28.9	1	2	112	0.00	29.946 
10:10	30.7	30.7	30.7	93	28.9	1	3	112	0.00	29.946 
10:15	30.9	30.9	30.9	93	29.1	1	3	112	0.00	29.948 
10:20	30.9	30.9	30.9	93	29.1	0	2	112	0.00	29.948 
10:25	31.0	31.0	31.0	93	29.2	0	2	112	0.00	29.948 
10:30	31.0	31.0	31.0	93	29.2	1	4	112	0.00	29.946 
10:35	31.0	31.0	31.0	93	29.2	1	3	112	0.00	29.946 
10:40	31.2	31.2	31.2	93	29.4	1	5	112	0.00	29.946 
10:45	31.2	31.2	31.2	93	29.4	0	2	112	0.00	29.932 
10:50	31.3	31.3	31.3	93	29.5	1	3	112	0.00	29.932 
10:55	31.3	31.3	31.3	93	29.5	1	3	112	0.00	29.932 
11:00	31.3	31.3	31.3	93	29.5	0	3	112	0.00	29.928 
11:05	31.5	31.5	31.5	93	29.7	1	3	112	0.00	29.928 
11:10	31.5	31.5	31.5	93	29.7	1	3	112	0.00	29.928 
11:15	31.5	31.5	31.5	93	29.7	1	4	112	0.00	29.912 
11:20	31.6	31.6	31.6	93	29.8	0	3	112	0.00	29.912 
11:25	31.6	31.6	31.6	93	29.8	0	2	112	0.00	29.912 
11:30	31.8	31.8	31.8	94	30.3	0	2	112	0.00	29.898 
11:35	31.9	31.9	31.9	93	30.1	0	1	112	0.00	29.898 
11:40	31.8	31.8	31.8	93	30.0	0	1	112	0.00	29.898 
11:45	31.9	31.9	31.9	93	30.1	0	1	112	0.00	29.879 
11:50	31.9	31.9	31.9	93	30.1	0	2	112	0.00	29.879 
11:55	31.9	31.9	31.9	94	30.4	0	2	112	0.00	29.879 
12:00	32.1	32.1	32.1	94	30.6	0	2	112	0.00	29.865 
12:05	32.1	32.1	32.1	94	30.6	0	3	112	0.01	29.865 
12:10	32.1	32.1	32.1	94	30.6	0	2	112	0.00	29.865 
12:15	32.1	32.1	32.1	94	30.6	0	3	112	0.00	29.847 
12:20	32.2	32.2	32.2	94	30.7	0	2	112	0.00	29.847 
12:25	32.2	32.2	32.2	94	30.7	0	1	112	0.00	29.847 
12:30	32.4	32.4	32.4	94	30.9	0	1	112	0.00	29.822 
12:35	32.5	32.5	32.5	94	31.0	0	2	112	0.00	29.822 
12:40	32.5	32.5	32.5	94	31.0	0	2	112	0.00	29.822 
12:45	32.5	32.5	32.5	94	31.0	0	2	112	0.00	29.797 
12:50	32.5	32.5	32.5	94	31.0	0	2	112	0.00	29.797 
12:55	32.5	32.5	32.5	94	31.0	0	2	112	0.00	29.797 
13:00	32.4	32.4	32.4	94	30.9	0	3	112	0.00	29.768 
13:05	32.5	32.5	32.5	94	31.0	0	1	112	0.00	29.768 
13:10	32.5	32.5	32.5	94	31.0	0	1	112	0.00	29.768 
13:15	32.5	32.5	32.5	94	31.0	0	2	112	0.00	29.751 
13:20	32.4	32.4	32.4	94	30.9	0	2	112	0.00	29.751 
13:25	32.4	32.4	32.4	94	30.9	0	2	112	0.00	29.751 
13:30	32.2	32.2	32.2	94	30.7	0	2	112	0.00	29.739 
13:35	32.2	32.2	32.2	94	30.7	0	2	112	0.00	29.739 
13:40	32.2	32.2	32.2	94	30.7	0	2	112	0.00	29.739 
13:45	32.2	32.2	32.2	94	30.7	0	2	112	0.00	29.726 
13:50	32.2	32.2	32.2	94	30.7	0	2	112	0.00	29.726 
13:55	32.2	32.2	32.2	94	30.7	0	2	112	0.00	29.726 
14:00	32.1	32.1	32.1	94	30.6	1	3	112	0.00	29.719 
14:05	32.1	32.1	32.1	94	30.6	1	3	112	0.00	29.719 
14:10	32.1	32.1	32.1	94	30.6	0	3	112	0.00	29.719 
14:15	32.1	32.1	32.1	94	30.6	0	2	112	0.00	29.715 
14:20	32.1	32.1	32.1	94	30.6	1	3	112	0.00	29.715 
14:25	31.9	31.9	31.9	94	30.4	0	2	112	0.00	29.715 
14:30	31.9	31.9	31.9	94	30.4	0	0	---	0.00	29.730 
14:35	31.9	31.9	31.9	94	30.4	0	0	---	0.00	29.730 
14:40	31.9	31.9	31.9	94	30.4	0	0	---	0.00	29.730 
14:45	31.9	31.9	31.9	94	30.4	0	0	---	0.00	29.707 
14:50	31.9	31.9	31.9	94	30.4	0	0	---	0.00	29.707 
14:55	31.9	31.9	31.9	94	30.4	0	0	---	0.00	29.707 
15:00	31.9	31.9	31.9	94	30.4	0	0	---	0.00	29.704 
15:05	31.9	31.9	31.9	94	30.4	0	0	---	0.00	29.704 
15:10	31.8	31.8	31.8	94	30.3	0	0	---	0.00	29.704 
15:15	31.8	31.8	31.8	94	30.3	0	0	---	0.00	29.696 
15:20	31.8	31.8	31.8	94	30.3	0	0	---	0.00	29.696 
15:25	31.8	31.8	31.8	94	30.3	0	0	---	0.00	29.696 
15:30	31.6	31.6	31.6	94	30.1	0	0	---	0.00	29.710 
15:35	31.6	31.6	31.6	94	30.1	0	0	---	0.00	29.710 
15:40	31.6	31.6	31.6	94	30.1	0	0	---	0.00	29.710 
15:45	31.5	31.5	31.5	94	30.0	0	0	---	0.00	29.691 
15:50	31.5	31.5	31.5	94	30.0	0	0	---	0.00	29.691 
15:55	31.3	31.3	31.3	94	29.8	0	0	---	0.00	29.691 
16:00	31.3	31.3	31.3	94	29.8	0	0	---	0.00	29.683 
16:05	31.3	31.3	31.3	94	29.8	0	0	---	0.00	29.683 
16:10	31.2	31.2	31.2	94	29.7	0	0	---	0.00	29.683 
16:15	31.2	31.2	31.2	94	29.7	0	0	---	0.00	29.673 
16:20	31.2	31.2	31.2	94	29.7	0	0	---	0.00	29.673 
16:25	31.0	31.0	31.0	94	29.5	0	0	---	0.00	29.673 
16:30	30.9	30.9	30.9	94	29.4	0	0	---	0.00	29.666 
16:35	30.9	30.9	30.9	94	29.4	0	0	---	0.00	29.666 
16:40	30.9	30.9	30.9	94	29.4	0	0	---	0.00	29.666 
16:45	30.7	30.7	30.7	94	29.2	0	0	---	0.00	29.690 
16:50	30.7	30.7	30.7	94	29.2	0	0	---	0.00	29.690 
16:55	30.4	30.4	30.4	94	28.9	0	0	---	0.00	29.690 
17:00	30.1	30.1	30.1	94	28.6	0	0	---	0.00	29.665 
17:05	29.8	29.8	29.8	94	28.3	0	0	---	0.00	29.665 
17:10	29.7	29.7	29.7	94	28.2	0	0	---	0.00	29.665 
17:15	29.4	29.4	29.4	94	27.9	0	0	---	0.00	29.638 
17:20	29.1	29.1	29.1	94	27.6	0	0	---	0.00	29.638 
17:25	28.8	28.8	28.8	94	27.3	0	0	---	0.00	29.638 
17:30	28.5	28.5	28.5	94	27.0	0	0	---	0.00	29.668 
17:35	28.1	28.1	28.1	93	26.3	0	0	---	0.00	29.668 
17:40	27.6	27.6	27.6	93	25.8	0	0	---	0.00	29.668 
17:45	27.0	27.0	27.0	93	25.3	0	0	---	0.00	29.664 
17:50	26.3	26.3	26.3	93	24.6	0	0	---	0.00	29.664 
17:55	25.8	25.8	25.8	93	24.1	0	0	---	0.00	29.664 
18:00	25.4	25.4	25.4	93	23.7	0	0	---	0.00	29.665 
18:05	25.3	25.3	25.3	93	23.6	0	0	---	0.00	29.665 
18:10	24.8	24.8	24.8	92	22.8	0	0	---	0.00	29.665 
18:15	24.5	24.5	24.5	92	22.5	0	0	---	0.00	29.669 
18:20	24.2	24.2	24.2	92	22.2	0	0	---	0.00	29.669 
18:25	23.9	23.9	23.9	92	21.9	0	0	---	0.00	29.669 
18:30	23.8	23.8	23.8	92	21.8	0	0	---	0.00	29.660 
18:35	23.5	23.5	23.5	92	21.5	0	0	---	0.00	29.660 
18:40	23.3	23.3	23.3	92	21.3	0	0	---	0.00	29.660 
18:45	23.2	23.2	23.2	92	21.2	0	0	---	0.00	29.655 
18:50	23.0	23.0	23.0	92	21.0	0	0	---	0.00	29.655 
18:55	22.9	22.9	22.9	92	20.9	0	0	---	0.00	29.655 
19:00	22.9	22.9	22.9	92	20.9	0	0	---	0.00	29.655 
19:05	22.7	22.7	22.7	92	20.7	1	3	315	0.00	29.655 
19:10	22.7	22.7	22.7	92	20.7	1	5	315	0.00	29.655 
19:15	22.5	22.5	22.5	92	20.5	1	4	315	0.00	29.647 
19:20	22.4	22.4	22.4	92	20.4	1	5	338	0.00	29.647 
19:25	22.2	22.2	22.2	92	20.2	1	4	315	0.00	29.647 
19:30	22.1	22.1	22.1	92	20.1	1	4	315	0.00	29.656 
19:35	22.1	22.1	22.1	92	20.1	2	5	315	0.00	29.656 
19:40	21.9	21.9	21.9	92	19.9	1	5	292	0.00	29.656 
19:45	21.8	21.8	21.8	92	19.8	2	5	338	0.00	29.640 
19:50	21.8	21.8	21.8	92	19.8	2	4	338	0.00	29.640 
19:55	21.8	21.8	21.8	92	19.8	2	4	338	0.00	29.640 
20:00	21.6	21.6	21.6	91	19.4	2	5	315	0.00	29.640 
20:05	21.6	21.6	21.6	91	19.4	1	4	0	0.00	29.640 
20:10	21.6	21.6	21.6	91	19.4	2	6	338	0.00	29.640 
20:15	21.4	21.4	21.4	91	19.2	1	4	315	0.00	29.648 
20:20	21.4	21.4	21.4	91	19.2	2	4	338	0.00	29.648 
20:25	21.4	21.4	21.4	91	19.2	1	5	0	0.00	29.648 
20:30	21.4	21.4	21.4	91	19.2	2	5	338	0.00	29.641 
20:35	21.3	21.3	21.3	91	19.1	2	6	338	0.00	29.641 
20:40	21.3	21.3	21.3	91	19.1	1	4	315	0.00	29.641 
20:45	21.3	21.3	21.3	91	19.1	2	4	338	0.00	29.644 
20:50	21.3	21.3	21.3	91	19.1	2	5	338	0.00	29.644 
20:55	21.3	21.3	21.3	91	19.1	2	4	338	0.00	29.644 
21:00	21.1	21.1	21.1	91	18.9	3	6	338	0.00	29.646 
21:05	21.1	21.1	21.1	91	18.9	2	7	338	0.00	29.646 
21:10	21.1	21.1	21.1	91	18.9	2	6	292	0.00	29.646 
21:15	21.1	21.1	21.1	91	18.9	2	7	315	0.00	29.655 
21:20	21.1	21.1	21.1	91	18.9	2	5	270	0.00	29.655 
21:25	21.1	21.1	21.1	91	18.9	3	9	338	0.00	29.655 
21:30	21.1	21.1	21.1	91	18.9	3	7	270	0.00	29.658 
21:35	21.1	21.1	21.1	91	18.9	3	7	338	0.00	29.658 
21:40	21.1	21.1	21.1	91	18.9	2	7	338	0.00	29.658 
21:45	21.1	21.1	21.1	91	18.9	3	7	270	0.00	29.657 
21:50	21.1	21.1	21.1	91	18.9	2	5	270	0.00	29.657 
21:55	21.0	21.0	21.0	90	18.5	3	6	338	0.00	29.657 
22:00	21.0	21.0	21.0	90	18.5	3	7	292	0.00	29.667 
22:05	21.0	21.0	21.0	90	18.5	3	6	270	0.00	29.667 
22:10	20.8	20.8	20.8	90	18.3	3	6	292	0.00	29.667 
22:15	20.6	20.6	20.6	90	18.1	3	6	338	0.00	29.672 
22:20	20.5	20.5	20.5	90	18.0	2	6	338	0.00	29.672 
22:25	20.5	20.5	20.5	90	18.0	3	7	338	0.00	29.672 
22:30	20.3	20.3	20.3	90	17.8	3	6	292	0.00	29.671 
22:35	20.3	20.3	20.3	90	17.8	3	7	292	0.00	29.671 
22:40	20.2	20.2	20.2	90	17.7	3	9	292	0.00	29.671 
22:45	20.2	20.2	20.2	89	17.5	3	10	292	0.00	29.682 
22:50	20.0	20.0	20.0	89	17.3	3	9	292	0.00	29.682 
22:55	20.0	20.0	20.0	89	17.3	3	9	315	0.00	29.682 
23:00	19.9	19.9	19.9	89	17.2	3	7	315	0.00	29.697 
23:05	19.7	19.7	19.7	89	17.0	3	6	270	0.00	29.697 
23:10	19.5	19.5	19.5	89	16.8	3	10	292	0.00	29.697 
23:15	19.4	19.4	19.4	89	16.7	3	7	292	0.00	29.703 
23:20	19.4	19.4	19.4	89	16.7	3	9	292	0.00	29.703 
23:25	19.2	19.2	19.2	89	16.5	3	6	338	0.00	29.703 
23:30	19.2	19.2	19.2	89	16.5	3	6	270	0.00	29.711 
23:35	19.2	19.2	19.2	89	16.5	3	6	270	0.00	29.711 
23:40	19.1	19.1	19.1	89	16.4	3	6	292	0.00	29.711 
23:45	19.1	19.1	19.1	88	16.1	2	5	292	0.00	29.729 
23:50	18.9	18.9	18.9	88	15.9	3	7	292	0.00	29.729 
23:55	18.9	18.9	18.9	88	15.9	3	7	315	0.00	29.729 

CoCoRaHS
IN-AL-39
A2 Web Hosting
Creative Commons License
GoDaddy
search engine by freefind advanced

loaded 2018-11-16 10:43:14 • last modified 2010-11-18 10:43:29
Privacy PolicyDisclaimer
• wx.awcolley.com is powered by PmWiki v.2002016 •
• all content (unless otherwise noted) © 2018 A W Colley